• Join FlightAware (Why Join?)
  • Login
  • US Flag 
12:39PM EDT


 

Airport Tracker/Info


-or-


 

Live Flight TrackerFlight Track Log ✈ SKW7363 ✈ 23-Oct-2013 ✈ KMSP - KABR

Flight Track Log - Related Links

Times and Time Zones

All times are in EDT time to prevent confusion due to time zone crossing. See the SKW7363 flight status page for this flight to view local times or setup timezone preferences in your user account.

Time Position Orientation Groundspeed Altitude Reporting Facility
EDT Latitude Longitude Course Direction KTS MPH feet Rate Location/Type
12:34PM 44.9000 -93.2500 288° West 157 181 2,300  Level Minneapolis TRACON
12:35PM 44.9264 -93.2836 318° Northwest 173 199 3,400 2,340 Climbing Minneapolis Center
12:36PM 44.9656 -93.3522 309° West 221 254 6,000 2,460 Climbing Minneapolis Center
12:37PM 44.9383 -93.6517 287° West  Level Estimated
12:37PM 45.0089 -93.4275 309° West 244 281 8,600  Level Minneapolis Center
12:38PM 44.9567 -93.7952 281° West  Level Estimated
12:38PM 45.0236 -93.5269 282° West 260 299 10,900  Level Minneapolis Center
12:39PM 44.9749 -93.9388 282° West  Level Estimated
12:39PM 45.0333 -93.6336 277° West 277 319 12,500  Level Minneapolis Center
12:40PM 45.0073 -94.0773 288° West  Level FlightAware Approximate
12:40PM 45.0397 -93.7797 274° West 315 362 14,000  Level Minneapolis Center
12:41PM 45.0472 -93.9061 275° West 323 372 16,000 1,860 Climbing Minneapolis Center
12:42PM 45.0583 -94.0356 277° West 333 383 17,900 1,560 Climbing Minneapolis Center
12:43PM 45.0664 -94.1656 275° West 333 383 19,300 2,220 Climbing Minneapolis Center
12:44PM 45.0778 -94.2942 277° West 333 383 22,500 2,100 Climbing Minneapolis Center
12:45PM 45.0853 -94.4081 275° West 302 348 23,700 1,200 Climbing Minneapolis Center
12:46PM 45.0978 -94.5517 277° West 304 350 25,000 1,080 Climbing Minneapolis Center
12:47PM 45.1094 -94.6603 279° West 313 360 26,000 480 Climbing Minneapolis Center
12:48PM 45.1236 -94.8075 278° West 316 364 26,000  Level Minneapolis Center
12:49PM 45.1350 -94.9311 277° West 317 365 26,000  Level Minneapolis Center
12:50PM 45.1469 -95.0525 278° West 315 362 26,000  Level Minneapolis Center
12:51PM 45.1583 -95.1733 278° West 312 359 26,000  Level Minneapolis Center
12:52PM 45.1700 -95.2953 278° West 313 360 26,000  Level Minneapolis Center
12:54PM 45.1839 -95.4386 278° West 309 356 26,000  Level Minneapolis Center
12:55PM 45.1944 -95.5594 277° West 309 356 26,000  Level Minneapolis Center
12:56PM 45.2056 -95.6786 278° West 308 354 26,000  Level Minneapolis Center
12:57PM 45.2164 -95.7986 277° West 308 354 26,000  Level Minneapolis Center
12:58PM 45.2278 -95.9197 278° West 310 357 26,000  Level Minneapolis Center
12:59PM 45.2372 -96.0378 277° West 304 350 26,000  Level Minneapolis Center
01:00PM 45.2497 -96.1803 277° West 304 350 26,000  Level Minneapolis Center
01:01PM 45.2603 -96.2989 277° West 304 350 26,000  Level Minneapolis Center
01:02PM 45.2706 -96.4172 277° West 304 350 26,000  Level Minneapolis Center
01:03PM 45.2792 -96.5347 276° West 302 348 26,000  Level Minneapolis Center
01:04PM 45.2894 -96.6514 277° West 300 345 26,000  Level Minneapolis Center
01:05PM 45.3003 -96.7922 276° West 300 345 26,000  Level Minneapolis Center
01:06PM 45.3092 -96.9069 276° West 296 341 26,000 -420 Level Minneapolis Center
01:07PM 45.3194 -97.0253 277° West 299 344 25,200 -1,260 Descending Minneapolis Center
01:08PM 45.3286 -97.1386 277° West 295 339 23,500 -1,920 Descending Minneapolis Center
01:09PM 45.3208 -97.2542 265° West 305 351 21,300 -2,160 Descending Minneapolis Center
01:10PM 45.2939 -97.3703 252° West 313 360 19,100 -2,280 Descending Minneapolis Center
01:11PM 45.2808 -97.5069 262° West 296 341 16,600 -2,280 Descending Minneapolis Center
01:12PM 45.2836 -97.6175 272° West 285 328 14,400 -2,040 Descending Minneapolis Center
01:13PM 45.3033 -97.7219 285° West 277 319 12,500 -1,860 Descending Minneapolis Center
01:14PM 45.3206 -97.8222 284° West 268 308 10,600 -2,040 Descending Minneapolis Center
01:15PM 45.3406 -97.9208 286° West 262 302 8,300 -1,680 Descending Minneapolis Center
01:16PM 45.3594 -98.0069 287° West 233 268 7,200 -1,200 Descending Minneapolis Center
01:17PM 45.3767 -98.0956 285° West 210 242 5,800 -1,260 Descending Minneapolis Center
01:18PM 45.3894 -98.1678 284° West 199 229 4,600 -1,200 Descending Minneapolis Center
01:20PM 45.4333 -98.3285 270° West  Level FlightAware Approximate